sensor_id;sensor_type;location;lat;lon;timestamp;pressure;altitude;pressure_sealevel;temperature;humidity
5879;BME280;2965;42.640;23.370;2023-04-02T04:00:48;93575.25;;;5.45;100.00
5879;BME280;2965;42.640;23.370;2023-04-02T04:05:52;93565.91;;;5.36;100.00
5879;BME280;2965;42.640;23.370;2023-04-02T04:08:22;93570.34;;;5.50;100.00
5879;BME280;2965;42.640;23.370;2023-04-02T04:10:56;93575.16;;;5.53;100.00
5879;BME280;2965;42.640;23.370;2023-04-02T04:13:35;93573.28;;;5.47;100.00
5879;BME280;2965;42.640;23.370;2023-04-02T04:16:11;93580.44;;;5.45;100.00
5879;BME280;2965;42.640;23.370;2023-04-02T04:19:03;93577.84;;;5.45;100.00
5879;BME280;2965;42.640;23.370;2023-04-02T04:21:30;93582.38;;;5.43;100.00
5879;BME280;2965;42.640;23.370;2023-04-02T04:24:22;93589.88;;;5.38;100.00
5879;BME280;2965;42.640;23.370;2023-04-02T04:27:01;93596.22;;;5.35;100.00
5879;BME280;2965;42.640;23.370;2023-04-02T04:32:31;93600.03;;;5.24;100.00
5879;BME280;2965;42.640;23.370;2023-04-02T04:35:07;93602.16;;;5.44;100.00
5879;BME280;2965;42.640;23.370;2023-04-02T04:37:42;93603.84;;;5.37;100.00
5879;BME280;2965;42.640;23.370;2023-04-02T04:40:22;93606.94;;;5.55;100.00
5879;BME280;2965;42.640;23.370;2023-04-02T04:42:51;93609.88;;;5.52;100.00
5879;BME280;2965;42.640;23.370;2023-04-02T04:45:45;93615.94;;;5.67;100.00
5879;BME280;2965;42.640;23.370;2023-04-02T04:48:16;93612.00;;;5.71;100.00
5879;BME280;2965;42.640;23.370;2023-04-02T04:50:54;93622.97;;;5.59;100.00
5879;BME280;2965;42.640;23.370;2023-04-02T04:53:25;93618.41;;;5.61;100.00
5879;BME280;2965;42.640;23.370;2023-04-02T04:55:53;93618.09;;;5.78;100.00
5879;BME280;2965;42.640;23.370;2023-04-02T04:58:28;93626.53;;;5.57;100.00
5879;BME280;2965;42.640;23.370;2023-04-02T05:01:09;93626.31;;;5.67;100.00
5879;BME280;2965;42.640;23.370;2023-04-02T05:03:43;93619.78;;;5.71;100.00
5879;BME280;2965;42.640;23.370;2023-04-02T05:06:23;93616.75;;;5.82;100.00
5879;BME280;2965;42.640;23.370;2023-04-02T05:08:51;93618.31;;;5.92;100.00
5879;BME280;2965;42.640;23.370;2023-04-02T05:11:29;93624.19;;;5.86;100.00
5879;BME280;2965;42.640;23.370;2023-04-02T05:13:59;93616.69;;;5.91;100.00
5879;BME280;2965;42.640;23.370;2023-04-02T05:16:34;93608.41;;;5.72;100.00
5879;BME280;2965;42.640;23.370;2023-04-02T05:19:13;93618.78;;;5.72;100.00
5879;BME280;2965;42.640;23.370;2023-04-02T05:27:02;93627.25;;;5.89;100.00
5879;BME280;2965;42.640;23.370;2023-04-02T05:29:36;93628.56;;;5.93;100.00
5879;BME280;2965;42.640;23.370;2023-04-02T05:32:07;93636.75;;;5.97;100.00
5879;BME280;2965;42.640;23.370;2023-04-02T05:34:37;93636.44;;;6.15;100.00
5879;BME280;2965;42.640;23.370;2023-04-02T05:37:05;93650.75;;;5.96;100.00
5879;BME280;2965;42.640;23.370;2023-04-02T05:39:33;93644.22;;;6.15;100.00
5879;BME280;2965;42.640;23.370;2023-04-02T05:42:06;93634.84;;;6.28;100.00
5879;BME280;2965;42.640;23.370;2023-04-02T05:44:48;93645.69;;;6.17;100.00
5879;BME280;2965;42.640;23.370;2023-04-02T05:47:20;93653.81;;;6.14;100.00
5879;BME280;2965;42.640;23.370;2023-04-02T05:49:52;93650.59;;;6.42;100.00
5879;BME280;2965;42.640;23.370;2023-04-02T05:52:25;93653.69;;;6.60;100.00
5879;BME280;2965;42.640;23.370;2023-04-02T05:54:57;93655.53;;;6.81;100.00
5879;BME280;2965;42.640;23.370;2023-04-02T05:57:30;93658.13;;;6.96;100.00
5879;BME280;2965;42.640;23.370;2023-04-02T05:59:59;93665.75;;;6.97;100.00
5879;BME280;2965;42.640;23.370;2023-04-02T08:54:35;93771.72;;;13.48;67.25
5879;BME280;2965;42.640;23.370;2023-04-02T08:57:31;93775.59;;;13.63;70.91
5879;BME280;2965;42.640;23.370;2023-04-02T09:00:25;93772.75;;;13.65;69.17
5879;BME280;2965;42.640;23.370;2023-04-02T09:02:55;93772.44;;;13.73;65.24
5879;BME280;2965;42.640;23.370;2023-04-02T09:05:28;93776.00;;;13.79;64.55
5879;BME280;2965;42.640;23.370;2023-04-02T09:07:57;93767.78;;;14.05;68.01
5879;BME280;2965;42.640;23.370;2023-04-02T09:10:34;93771.47;;;14.34;65.94
5879;BME280;2965;42.640;23.370;2023-04-02T09:13:49;93779.44;;;14.58;65.22
5879;BME280;2965;42.640;23.370;2023-04-02T09:16:06;93770.38;;;14.54;61.11
5879;BME280;2965;42.640;23.370;2023-04-02T09:18:32;93768.78;;;14.53;62.12
5879;BME280;2965;42.640;23.370;2023-04-02T09:23:52;93780.72;;;14.67;62.04
5879;BME280;2965;42.640;23.370;2023-04-02T09:26:21;93781.22;;;14.87;60.83
5879;BME280;2965;42.640;23.370;2023-04-02T09:28:50;93776.91;;;14.21;59.61
5879;BME280;2965;42.640;23.370;2023-04-02T09:31:21;93782.84;;;14.28;56.73
5879;BME280;2965;42.640;23.370;2023-04-02T09:33:51;93761.63;;;14.95;62.14
5879;BME280;2965;42.640;23.370;2023-04-02T09:36:34;93760.59;;;15.31;59.88
5879;BME280;2965;42.640;23.370;2023-04-02T09:39:21;93758.34;;;15.23;57.31
5879;BME280;2965;42.640;23.370;2023-04-02T09:41:48;93758.09;;;14.89;57.96
5879;BME280;2965;42.640;23.370;2023-04-02T09:49:15;93756.47;;;15.47;60.35
5879;BME280;2965;42.640;23.370;2023-04-02T09:51:42;93755.56;;;15.65;54.11
5879;BME280;2965;42.640;23.370;2023-04-02T09:54:13;93740.66;;;15.59;53.62
5879;BME280;2965;42.640;23.370;2023-04-02T09:56:42;93751.22;;;15.12;53.52
5879;BME280;2965;42.640;23.370;2023-04-02T09:59:22;93743.66;;;15.04;57.06
5879;BME280;2965;42.640;23.370;2023-04-02T10:04:40;93748.25;;;15.20;53.79
5879;BME280;2965;42.640;23.370;2023-04-02T10:12:56;93746.09;;;15.05;53.64
5879;BME280;2965;42.640;23.370;2023-04-02T10:15:32;93738.66;;;15.14;53.17
5879;BME280;2965;42.640;23.370;2023-04-02T10:18:08;93740.00;;;15.28;54.13
5879;BME280;2965;42.640;23.370;2023-04-02T10:20:39;93732.06;;;15.40;51.13
5879;BME280;2965;42.640;23.370;2023-04-02T10:23:07;93732.66;;;15.42;51.12
5879;BME280;2965;42.640;23.370;2023-04-02T10:25:41;93729.78;;;15.44;51.14
5879;BME280;2965;42.640;23.370;2023-04-02T10:31:12;93739.28;;;15.68;50.41
5879;BME280;2965;42.640;23.370;2023-04-02T10:33:45;93738.75;;;15.95;50.55
5879;BME280;2965;42.640;23.370;2023-04-02T10:36:25;93734.84;;;16.26;49.85
5879;BME280;2965;42.640;23.370;2023-04-02T10:39:00;93735.31;;;16.23;48.21
5879;BME280;2965;42.640;23.370;2023-04-02T10:42:00;93734.56;;;16.56;48.75
5879;BME280;2965;42.640;23.370;2023-04-02T13:47:37;93660.22;;;20.34;39.05
5879;BME280;2965;42.640;23.370;2023-04-02T13:50:02;93655.50;;;20.62;41.98
5879;BME280;2965;42.640;23.370;2023-04-02T13:52:28;93645.38;;;20.49;38.06
5879;BME280;2965;42.640;23.370;2023-04-02T13:54:55;93657.69;;;19.72;39.40
5879;BME280;2965;42.640;23.370;2023-04-02T13:57:24;93657.81;;;20.12;38.59
5879;BME280;2965;42.640;23.370;2023-04-02T13:59:50;93645.59;;;20.22;38.00
5879;BME280;2965;42.640;23.370;2023-04-02T14:02:17;93653.28;;;20.13;39.31
5879;BME280;2965;42.640;23.370;2023-04-02T14:04:47;93639.22;;;20.07;38.41
5879;BME280;2965;42.640;23.370;2023-04-02T14:07:43;93648.06;;;20.64;38.50
5879;BME280;2965;42.640;23.370;2023-04-02T14:10:27;93646.97;;;20.80;36.75
5879;BME280;2965;42.640;23.370;2023-04-02T14:16:29;93643.72;;;20.07;38.23
5879;BME280;2965;42.640;23.370;2023-04-02T14:30:04;93645.53;;;18.49;39.11
5879;BME280;2965;42.640;23.370;2023-04-02T14:33:10;93642.97;;;18.00;40.56
5879;BME280;2965;42.640;23.370;2023-04-02T14:35:46;93639.50;;;17.72;40.27
5879;BME280;2965;42.640;23.370;2023-04-02T14:38:31;93636.66;;;17.35;42.39
5879;BME280;2965;42.640;23.370;2023-04-02T14:41:04;93634.41;;;17.44;41.55
5879;BME280;2965;42.640;23.370;2023-04-02T14:43:42;93638.75;;;17.99;40.37
5879;BME280;2965;42.640;23.370;2023-04-02T14:46:09;93641.34;;;17.94;41.09
5879;BME280;2965;42.640;23.370;2023-04-02T14:48:55;93640.25;;;17.68;41.86
5879;BME280;2965;42.640;23.370;2023-04-02T14:56:46;93641.41;;;17.33;43.15
5879;BME280;2965;42.640;23.370;2023-04-02T15:02:01;93640.78;;;17.48;42.37
5879;BME280;2965;42.640;23.370;2023-04-02T15:04:38;93649.72;;;17.63;40.80
5879;BME280;2965;42.640;23.370;2023-04-02T15:07:13;93653.56;;;17.56;42.17
5879;BME280;2965;42.640;23.370;2023-04-02T15:09:45;93658.31;;;17.10;41.17
5879;BME280;2965;42.640;23.370;2023-04-02T15:12:21;93657.59;;;16.98;43.63
5879;BME280;2965;42.640;23.370;2023-04-02T15:14:53;93661.94;;;17.48;42.21
5879;BME280;2965;42.640;23.370;2023-04-02T15:17:20;93667.53;;;17.95;41.10
5879;BME280;2965;42.640;23.370;2023-04-02T15:19:46;93659.28;;;17.70;40.66
5879;BME280;2965;42.640;23.370;2023-04-02T15:22:26;93666.13;;;17.44;42.11
5879;BME280;2965;42.640;23.370;2023-04-02T15:27:49;93658.66;;;16.97;41.67
5879;BME280;2965;42.640;23.370;2023-04-02T15:30:23;93665.16;;;16.72;42.55
5879;BME280;2965;42.640;23.370;2023-04-02T15:32:50;93657.91;;;16.51;42.54
5879;BME280;2965;42.640;23.370;2023-04-02T15:38:27;93665.03;;;16.17;43.91
5879;BME280;2965;42.640;23.370;2023-04-02T15:43:56;93664.81;;;16.85;44.33
5879;BME280;2965;42.640;23.370;2023-04-02T18:23:00;93808.41;;;11.84;59.10
5879;BME280;2965;42.640;23.370;2023-04-02T18:29:00;93814.00;;;11.81;60.66
5879;BME280;2965;42.640;23.370;2023-04-02T18:37:31;93836.16;;;11.99;59.42
5879;BME280;2965;42.640;23.370;2023-04-02T18:40:23;93842.59;;;12.03;60.00
5879;BME280;2965;42.640;23.370;2023-04-02T18:51:24;93844.97;;;12.11;60.27
5879;BME280;2965;42.640;23.370;2023-04-02T18:53:58;93843.38;;;12.10;59.75
5879;BME280;2965;42.640;23.370;2023-04-02T18:56:27;93851.44;;;12.08;60.11
5879;BME280;2965;42.640;23.370;2023-04-02T19:01:42;93851.53;;;11.89;61.38
5879;BME280;2965;42.640;23.370;2023-04-02T19:04:19;93850.69;;;11.95;60.93
5879;BME280;2965;42.640;23.370;2023-04-02T19:06:53;93851.06;;;11.98;60.72
5879;BME280;2965;42.640;23.370;2023-04-02T19:09:25;93856.53;;;11.97;60.74
5879;BME280;2965;42.640;23.370;2023-04-02T19:11:51;93851.47;;;12.02;61.12
5879;BME280;2965;42.640;23.370;2023-04-02T19:14:19;93857.50;;;12.09;60.68
5879;BME280;2965;42.640;23.370;2023-04-02T19:17:01;93853.88;;;12.10;60.79
5879;BME280;2965;42.640;23.370;2023-04-02T19:19:35;93862.94;;;12.07;61.28
5879;BME280;2965;42.640;23.370;2023-04-02T19:30:36;93865.19;;;11.97;61.52
5879;BME280;2965;42.640;23.370;2023-04-02T19:33:26;93863.63;;;11.83;62.26
5879;BME280;2965;42.640;23.370;2023-04-02T19:36:06;93856.19;;;11.73;62.98
5879;BME280;2965;42.640;23.370;2023-04-02T19:41:37;93853.75;;;11.78;62.63
5879;BME280;2965;42.640;23.370;2023-04-02T19:44:09;93858.19;;;11.84;62.71
5879;BME280;2965;42.640;23.370;2023-04-02T19:46:36;93856.72;;;11.95;62.42
5879;BME280;2965;42.640;23.370;2023-04-02T19:49:16;93860.59;;;11.86;63.24
5879;BME280;2965;42.640;23.370;2023-04-02T19:51:49;93866.84;;;11.92;63.32
5879;BME280;2965;42.640;23.370;2023-04-02T19:54:16;93867.25;;;11.75;64.35
5879;BME280;2965;42.640;23.370;2023-04-02T19:56:42;93873.31;;;11.82;64.94
5879;BME280;2965;42.640;23.370;2023-04-02T19:59:08;93872.50;;;11.75;65.90
5879;BME280;2965;42.640;23.370;2023-04-02T20:01:34;93867.25;;;11.75;66.65
5879;BME280;2965;42.640;23.370;2023-04-02T20:03:59;93866.03;;;11.71;66.70
5879;BME280;2965;42.640;23.370;2023-04-02T20:06:25;93875.13;;;11.75;66.68
5879;BME280;2965;42.640;23.370;2023-04-02T20:08:51;93875.13;;;11.75;66.90
5879;BME280;2965;42.640;23.370;2023-04-02T20:11:16;93864.03;;;11.73;67.67
5879;BME280;2965;42.640;23.370;2023-04-02T20:13:42;93872.09;;;11.72;67.56
5879;BME280;2965;42.640;23.370;2023-04-02T20:16:07;93874.75;;;11.58;68.78
5879;BME280;2965;42.640;23.370;2023-04-02T20:18:33;93881.22;;;11.43;70.95
5879;BME280;2965;42.640;23.370;2023-04-02T20:37:22;93867.91;;;11.37;73.98
5879;BME280;2965;42.640;23.370;2023-04-02T20:39:48;93880.41;;;11.35;74.43
5879;BME280;2965;42.640;23.370;2023-04-02T20:42:14;93880.63;;;11.27;75.62
5879;BME280;2965;42.640;23.370;2023-04-02T20:44:39;93889.09;;;11.29;75.54
5879;BME280;2965;42.640;23.370;2023-04-02T20:47:06;93884.03;;;11.28;76.14
5879;BME280;2965;42.640;23.370;2023-04-02T20:49:32;93891.31;;;11.26;76.60
5879;BME280;2965;42.640;23.370;2023-04-02T20:51:58;93892.69;;;11.15;78.23
5879;BME280;2965;42.640;23.370;2023-04-02T20:54:23;93887.25;;;11.10;79.02
5879;BME280;2965;42.640;23.370;2023-04-02T20:56:49;93890.91;;;11.09;78.99
5879;BME280;2965;42.640;23.370;2023-04-02T20:59:15;93885.47;;;11.04;80.04
